sensor_id;sensor_type;location;lat;lon;timestamp;pressure;altitude;pressure_sealevel;temperature;humidity
38227;BME280;24026;49.446;8.576;2023-04-25T00:00:23;99920.88;;;15.66;49.86
38227;BME280;24026;49.446;8.576;2023-04-25T00:02:45;99915.03;;;15.64;49.75
38227;BME280;24026;49.446;8.576;2023-04-25T00:05:06;99913.94;;;15.65;49.67
38227;BME280;24026;49.446;8.576;2023-04-25T00:07:26;99916.09;;;15.63;49.77
38227;BME280;24026;49.446;8.576;2023-04-25T00:09:47;99915.31;;;15.62;49.83
38227;BME280;24026;49.446;8.576;2023-04-25T00:12:07;99912.34;;;15.64;49.92
38227;BME280;24026;49.446;8.576;2023-04-25T00:14:27;99913.69;;;15.61;49.88
38227;BME280;24026;49.446;8.576;2023-04-25T00:16:47;99920.94;;;15.61;49.92
38227;BME280;24026;49.446;8.576;2023-04-25T00:19:08;99917.44;;;15.60;49.98
38227;BME280;24026;49.446;8.576;2023-04-25T00:21:29;99914.78;;;15.60;50.04
38227;BME280;24026;49.446;8.576;2023-04-25T00:23:52;99919.34;;;15.60;50.04
38227;BME280;24026;49.446;8.576;2023-04-25T00:26:12;99920.13;;;15.60;49.88
38227;BME280;24026;49.446;8.576;2023-04-25T00:28:33;99920.13;;;15.60;49.92
38227;BME280;24026;49.446;8.576;2023-04-25T00:30:53;99912.91;;;15.61;50.02
38227;BME280;24026;49.446;8.576;2023-04-25T00:33:13;99913.19;;;15.59;50.10
38227;BME280;24026;49.446;8.576;2023-04-25T00:35:34;99910.81;;;15.57;49.98
38227;BME280;24026;49.446;8.576;2023-04-25T00:37:54;99907.34;;;15.57;50.08
38227;BME280;24026;49.446;8.576;2023-04-25T00:40:15;99905.44;;;15.57;50.08
38227;BME280;24026;49.446;8.576;2023-04-25T00:42:35;99910.81;;;15.57;50.03
38227;BME280;24026;49.446;8.576;2023-04-25T00:44:56;99908.13;;;15.57;50.06
38227;BME280;24026;49.446;8.576;2023-04-25T00:47:17;99905.72;;;15.56;50.25
38227;BME280;24026;49.446;8.576;2023-04-25T00:49:37;99903.06;;;15.56;50.09
38227;BME280;24026;49.446;8.576;2023-04-25T00:51:57;99895.03;;;15.56;50.10
38227;BME280;24026;49.446;8.576;2023-04-25T00:54:18;99889.94;;;15.54;50.14
38227;BME280;24026;49.446;8.576;2023-04-25T00:56:38;99890.22;;;15.53;50.20
38227;BME280;24026;49.446;8.576;2023-04-25T00:58:58;99886.47;;;15.54;50.24
38227;BME280;24026;49.446;8.576;2023-04-25T01:01:18;99882.97;;;15.53;50.25
38227;BME280;24026;49.446;8.576;2023-04-25T01:03:39;99886.47;;;15.54;50.20
38227;BME280;24026;49.446;8.576;2023-04-25T01:06:02;99888.34;;;15.53;50.34
38227;BME280;24026;49.446;8.576;2023-04-25T01:08:23;99887.28;;;15.54;50.54
38227;BME280;24026;49.446;8.576;2023-04-25T01:10:45;99894.50;;;15.54;50.42
38227;BME280;24026;49.446;8.576;2023-04-25T01:13:05;99883.81;;;15.54;50.42
38227;BME280;24026;49.446;8.576;2023-04-25T01:15:25;99882.47;;;15.51;50.37
38227;BME280;24026;49.446;8.576;2023-04-25T01:17:45;99888.66;;;15.52;50.38
38227;BME280;24026;49.446;8.576;2023-04-25T01:20:06;99884.88;;;15.53;50.60
38227;BME280;24026;49.446;8.576;2023-04-25T01:22:27;99891.34;;;15.52;50.44
38227;BME280;24026;49.446;8.576;2023-04-25T01:24:48;99883.28;;;15.52;50.46
38227;BME280;24026;49.446;8.576;2023-04-25T01:27:08;99884.38;;;15.51;50.67
38227;BME280;24026;49.446;8.576;2023-04-25T01:29:30;99879.28;;;15.49;50.64
38227;BME280;24026;49.446;8.576;2023-04-25T01:31:51;99877.69;;;15.48;50.75
38227;BME280;24026;49.446;8.576;2023-04-25T01:34:12;99878.22;;;15.50;50.69
38227;BME280;24026;49.446;8.576;2023-04-25T01:36:33;99876.91;;;15.48;50.66
38227;BME280;24026;49.446;8.576;2023-04-25T01:38:54;99880.66;;;15.47;50.66
38227;BME280;24026;49.446;8.576;2023-04-25T01:41:15;99883.88;;;15.49;50.82
38227;BME280;24026;49.446;8.576;2023-04-25T01:43:36;99875.84;;;15.49;50.69
38227;BME280;24026;49.446;8.576;2023-04-25T01:45:57;99880.66;;;15.47;50.87
38227;BME280;24026;49.446;8.576;2023-04-25T01:48:17;99884.94;;;15.48;50.88
38227;BME280;24026;49.446;8.576;2023-04-25T01:50:38;99889.50;;;15.47;50.77
38227;BME280;24026;49.446;8.576;2023-04-25T01:52:58;99881.47;;;15.47;50.79
38227;BME280;24026;49.446;8.576;2023-04-25T01:55:19;99878.28;;;15.45;51.01
38227;BME280;24026;49.446;8.576;2023-04-25T01:57:39;99881.25;;;15.44;51.05
38227;BME280;24026;49.446;8.576;2023-04-25T02:00:00;99884.72;;;15.44;51.01
38227;BME280;24026;49.446;8.576;2023-04-25T02:02:21;99887.41;;;15.44;51.06
38227;BME280;24026;49.446;8.576;2023-04-25T02:04:41;99889.28;;;15.44;51.09
38227;BME280;24026;49.446;8.576;2023-04-25T02:07:01;99887.41;;;15.44;51.02
38227;BME280;24026;49.446;8.576;2023-04-25T02:09:22;99889.28;;;15.44;50.97
38227;BME280;24026;49.446;8.576;2023-04-25T02:11:42;99893.81;;;15.43;51.16
38227;BME280;24026;49.446;8.576;2023-04-25T02:14:02;99890.63;;;15.41;51.18
38227;BME280;24026;49.446;8.576;2023-04-25T02:16:23;99889.56;;;15.42;51.17
38227;BME280;24026;49.446;8.576;2023-04-25T02:18:43;99898.94;;;15.40;51.25
38227;BME280;24026;49.446;8.576;2023-04-25T02:21:04;99886.34;;;15.40;51.37
38227;BME280;24026;49.446;8.576;2023-04-25T02:23:25;99884.00;;;15.38;51.37
38227;BME280;24026;49.446;8.576;2023-04-25T02:25:45;99884.00;;;15.38;51.40
38227;BME280;24026;49.446;8.576;2023-04-25T02:28:05;99888.53;;;15.38;51.43
38227;BME280;24026;49.446;8.576;2023-04-25T02:30:25;99889.34;;;15.38;51.46
38227;BME280;24026;49.446;8.576;2023-04-25T02:32:46;99886.94;;;15.37;51.61
38227;BME280;24026;49.446;8.576;2023-04-25T02:35:06;99882.66;;;15.36;51.62
38227;BME280;24026;49.446;8.576;2023-04-25T02:37:26;99879.19;;;15.35;51.66
38227;BME280;24026;49.446;8.576;2023-04-25T02:39:47;99884.56;;;15.35;51.65
38227;BME280;24026;49.446;8.576;2023-04-25T02:42:07;99877.31;;;15.36;51.69
38227;BME280;24026;49.446;8.576;2023-04-25T02:44:27;99879.19;;;15.35;51.87
38227;BME280;24026;49.446;8.576;2023-04-25T02:46:47;99876.00;;;15.33;51.81
38227;BME280;24026;49.446;8.576;2023-04-25T02:49:08;99873.63;;;15.32;52.04
38227;BME280;24026;49.446;8.576;2023-04-25T02:51:28;99872.25;;;15.34;51.86
38227;BME280;24026;49.446;8.576;2023-04-25T02:53:48;99867.44;;;15.31;51.96
38227;BME280;24026;49.446;8.576;2023-04-25T02:56:08;99869.34;;;15.31;51.95
38227;BME280;24026;49.446;8.576;2023-04-25T02:58:29;99872.03;;;15.31;52.09
38227;BME280;24026;49.446;8.576;2023-04-25T03:00:49;99871.22;;;15.30;52.05
38227;BME280;24026;49.446;8.576;2023-04-25T03:03:10;99870.69;;;15.28;52.06
38227;BME280;24026;49.446;8.576;2023-04-25T03:05:30;99871.50;;;15.29;52.22
38227;BME280;24026;49.446;8.576;2023-04-25T03:07:50;99873.38;;;15.28;52.19
38227;BME280;24026;49.446;8.576;2023-04-25T03:10:11;99868.84;;;15.29;52.26
38227;BME280;24026;49.446;8.576;2023-04-25T03:12:31;99866.16;;;15.29;52.17
38227;BME280;24026;49.446;8.576;2023-04-25T03:14:52;99864.56;;;15.28;52.26
38227;BME280;24026;49.446;8.576;2023-04-25T03:17:12;99869.13;;;15.27;52.21
38227;BME280;24026;49.446;8.576;2023-04-25T03:19:32;99865.63;;;15.27;52.34
38227;BME280;24026;49.446;8.576;2023-04-25T03:21:52;99868.00;;;15.28;52.29
38227;BME280;24026;49.446;8.576;2023-04-25T03:24:13;99868.84;;;15.29;52.33
38227;BME280;24026;49.446;8.576;2023-04-25T03:26:33;99861.38;;;15.26;52.39
38227;BME280;24026;49.446;8.576;2023-04-25T03:28:54;99862.16;;;15.26;52.33
38227;BME280;24026;49.446;8.576;2023-04-25T03:31:14;99862.16;;;15.26;52.40
38227;BME280;24026;49.446;8.576;2023-04-25T03:33:34;99857.09;;;15.25;52.39
38227;BME280;24026;49.446;8.576;2023-04-25T03:35:55;99862.72;;;15.23;52.46
38227;BME280;24026;49.446;8.576;2023-04-25T03:38:15;99858.97;;;15.24;52.57
38227;BME280;24026;49.446;8.576;2023-04-25T03:40:35;99866.22;;;15.24;52.47
38227;BME280;24026;49.446;8.576;2023-04-25T03:42:55;99860.31;;;15.22;52.49
38227;BME280;24026;49.446;8.576;2023-04-25T03:45:16;99858.47;;;15.22;52.34
38227;BME280;24026;49.446;8.576;2023-04-25T03:47:36;99853.13;;;15.22;52.48
38227;BME280;24026;49.446;8.576;2023-04-25T03:49:56;99861.16;;;15.22;52.46
38227;BME280;24026;49.446;8.576;2023-04-25T03:52:16;99851.50;;;15.21;52.62
38227;BME280;24026;49.446;8.576;2023-04-25T03:54:37;99860.31;;;15.22;52.63
38227;BME280;24026;49.446;8.576;2023-04-25T03:56:57;99867.28;;;15.23;52.57
38227;BME280;24026;49.446;8.576;2023-04-25T03:59:17;99867.56;;;15.21;52.60
38227;BME280;24026;49.446;8.576;2023-04-25T04:01:37;99874.53;;;15.22;52.54
38227;BME280;24026;49.446;8.576;2023-04-25T04:03:58;99872.91;;;15.21;52.58
38227;BME280;24026;49.446;8.576;2023-04-25T04:06:18;99873.19;;;15.19;52.60
38227;BME280;24026;49.446;8.576;2023-04-25T04:08:40;99877.50;;;15.21;52.68
38227;BME280;24026;49.446;8.576;2023-04-25T04:11:00;99874.00;;;15.20;52.58
38227;BME280;24026;49.446;8.576;2023-04-25T04:13:21;99876.66;;;15.20;52.61
38227;BME280;24026;49.446;8.576;2023-04-25T04:15:41;99877.50;;;15.21;52.65
38227;BME280;24026;49.446;8.576;2023-04-25T04:18:01;99872.41;;;15.19;52.66
38227;BME280;24026;49.446;8.576;2023-04-25T04:20:22;99878.06;;;15.17;52.80
38227;BME280;24026;49.446;8.576;2023-04-25T04:22:42;99871.09;;;15.16;52.79
38227;BME280;24026;49.446;8.576;2023-04-25T04:25:03;99878.06;;;15.17;52.70
38227;BME280;24026;49.446;8.576;2023-04-25T04:27:24;99879.94;;;15.17;52.84
38227;BME280;24026;49.446;8.576;2023-04-25T04:29:45;99876.16;;;15.18;52.64
38227;BME280;24026;49.446;8.576;2023-04-25T04:32:05;99874.88;;;15.15;52.84
38227;BME280;24026;49.446;8.576;2023-04-25T04:34:26;99881.78;;;15.16;52.87
38227;BME280;24026;49.446;8.576;2023-04-25T04:36:47;99891.72;;;15.16;52.88
38227;BME280;24026;49.446;8.576;2023-04-25T04:39:07;99884.75;;;15.15;52.94
38227;BME280;24026;49.446;8.576;2023-04-25T04:41:29;99887.72;;;15.13;52.92
38227;BME280;24026;49.446;8.576;2023-04-25T04:43:50;99892.28;;;15.13;53.00
38227;BME280;24026;49.446;8.576;2023-04-25T04:46:11;99897.63;;;15.13;52.90
38227;BME280;24026;49.446;8.576;2023-04-25T04:48:32;99896.34;;;15.10;53.08
38227;BME280;24026;49.446;8.576;2023-04-25T04:50:54;99903.53;;;15.10;53.19
38227;BME280;24026;49.446;8.576;2023-04-25T04:53:14;99900.88;;;15.10;53.11
38227;BME280;24026;49.446;8.576;2023-04-25T04:55:37;99897.69;;;15.08;53.26
38227;BME280;24026;49.446;8.576;2023-04-25T04:57:58;99906.50;;;15.08;53.22
38227;BME280;24026;49.446;8.576;2023-04-25T05:00:19;99911.06;;;15.08;53.37
38227;BME280;24026;49.446;8.576;2023-04-25T05:02:40;99910.28;;;15.07;53.37
38227;BME280;24026;49.446;8.576;2023-04-25T05:05:01;99917.81;;;15.05;53.40
38227;BME280;24026;49.446;8.576;2023-04-25T05:07:21;99918.31;;;15.07;53.39
38227;BME280;24026;49.446;8.576;2023-04-25T05:09:42;99923.38;;;15.09;53.45
38227;BME280;24026;49.446;8.576;2023-04-25T05:12:03;99922.81;;;15.12;53.34
38227;BME280;24026;49.446;8.576;2023-04-25T05:14:23;99922.47;;;15.18;53.24
38227;BME280;24026;49.446;8.576;2023-04-25T05:16:43;99924.81;;;15.25;53.08
38227;BME280;24026;49.446;8.576;2023-04-25T05:19:03;99927.34;;;15.41;52.74
38227;BME280;24026;49.446;8.576;2023-04-25T05:21:24;99919.63;;;15.58;52.34
38227;BME280;24026;49.446;8.576;2023-04-25T05:23:45;99913.78;;;15.75;51.90
38227;BME280;24026;49.446;8.576;2023-04-25T05:26:06;99912.84;;;15.90;51.54
38227;BME280;24026;49.446;8.576;2023-04-25T05:28:33;99915.84;;;16.07;51.09
38227;BME280;24026;49.446;8.576;2023-04-25T05:30:53;99910.16;;;16.28;50.73
38227;BME280;24026;49.446;8.576;2023-04-25T05:33:13;99912.97;;;16.37;50.76
38227;BME280;24026;49.446;8.576;2023-04-25T05:35:34;99919.00;;;16.47;50.53
38227;BME280;24026;49.446;8.576;2023-04-25T05:37:54;99917.22;;;16.57;50.05
38227;BME280;24026;49.446;8.576;2023-04-25T05:40:15;99924.53;;;16.70;49.80
38227;BME280;24026;49.446;8.576;2023-04-25T05:42:36;99917.06;;;16.86;49.25
38227;BME280;24026;49.446;8.576;2023-04-25T05:44:57;99921.75;;;16.94;49.24
38227;BME280;24026;49.446;8.576;2023-04-25T05:47:18;99915.81;;;16.97;49.48
38227;BME280;24026;49.446;8.576;2023-04-25T05:49:39;99922.06;;;17.07;49.19
38227;BME280;24026;49.446;8.576;2023-04-25T05:52:10;99925.97;;;17.14;48.92
38227;BME280;24026;49.446;8.576;2023-04-25T05:54:35;99921.69;;;17.13;49.01
38227;BME280;24026;49.446;8.576;2023-04-25T05:56:59;99930.81;;;17.12;48.98
38227;BME280;24026;49.446;8.576;2023-04-25T05:59:19;99927.94;;;17.09;49.19
38227;BME280;24026;49.446;8.576;2023-04-25T06:01:40;99929.44;;;17.01;49.29
38227;BME280;24026;49.446;8.576;2023-04-25T06:04:00;99934.66;;;16.92;49.48
38227;BME280;24026;49.446;8.576;2023-04-25T06:06:21;99935.03;;;16.85;49.60
38227;BME280;24026;49.446;8.576;2023-04-25T06:08:41;99936.16;;;16.84;49.54
38227;BME280;24026;49.446;8.576;2023-04-25T06:11:03;99939.88;;;16.83;49.72
38227;BME280;24026;49.446;8.576;2023-04-25T06:13:23;99937.78;;;16.80;49.92
38227;BME280;24026;49.446;8.576;2023-04-25T06:15:43;99940.56;;;16.75;50.39
38227;BME280;24026;49.446;8.576;2023-04-25T06:18:03;99944.34;;;16.74;50.03
38227;BME280;24026;49.446;8.576;2023-04-25T06:20:24;99938.97;;;16.74;50.28
38227;BME280;24026;49.446;8.576;2023-04-25T06:22:44;99933.91;;;16.73;50.26
38227;BME280;24026;49.446;8.576;2023-04-25T06:25:05;99947.41;;;16.67;50.53
38227;BME280;24026;49.446;8.576;2023-04-25T06:27:27;99940.13;;;16.68;50.11
38227;BME280;24026;49.446;8.576;2023-04-25T06:29:47;99948.97;;;16.68;50.27
38227;BME280;24026;49.446;8.576;2023-04-25T06:32:07;99945.50;;;16.68;50.32
38227;BME280;24026;49.446;8.576;2023-04-25T06:34:28;99943.91;;;16.67;50.48
38227;BME280;24026;49.446;8.576;2023-04-25T06:36:48;99948.47;;;16.66;50.49
38227;BME280;24026;49.446;8.576;2023-04-25T06:39:08;99944.50;;;16.64;50.49
38227;BME280;24026;49.446;8.576;2023-04-25T06:41:29;99948.28;;;16.63;50.45
38227;BME280;24026;49.446;8.576;2023-04-25T06:43:49;99953.91;;;16.61;50.78
38227;BME280;24026;49.446;8.576;2023-04-25T06:46:10;99953.91;;;16.61;50.80
38227;BME280;24026;49.446;8.576;2023-04-25T06:48:32;99959.38;;;16.56;50.95
38227;BME280;24026;49.446;8.576;2023-04-25T06:50:52;99963.13;;;16.55;50.91
38227;BME280;24026;49.446;8.576;2023-04-25T06:53:12;99956.97;;;16.55;50.74
38227;BME280;24026;49.446;8.576;2023-04-25T06:55:33;99960.72;;;16.54;50.86
38227;BME280;24026;49.446;8.576;2023-04-25T06:57:54;99961.84;;;16.53;50.79
38227;BME280;24026;49.446;8.576;2023-04-25T07:00:15;99969.06;;;16.52;51.00
38227;BME280;24026;49.446;8.576;2023-04-25T07:02:35;99965.59;;;16.52;50.83
38227;BME280;24026;49.446;8.576;2023-04-25T07:04:55;99967.50;;;16.51;50.83
38227;BME280;24026;49.446;8.576;2023-04-25T07:07:19;99970.47;;;16.49;50.81
38227;BME280;24026;49.446;8.576;2023-04-25T07:09:40;99970.75;;;16.48;50.73
38227;BME280;24026;49.446;8.576;2023-04-25T07:12:00;99980.69;;;16.47;51.04
38227;BME280;24026;49.446;8.576;2023-04-25T07:14:21;99978.88;;;16.43;51.10
38227;BME280;24026;49.446;8.576;2023-04-25T07:16:42;99984.25;;;16.43;51.21
38227;BME280;24026;49.446;8.576;2023-04-25T07:19:02;99987.22;;;16.41;51.20
38227;BME280;24026;49.446;8.576;2023-04-25T07:21:22;99988.28;;;16.40;51.18
38227;BME280;24026;49.446;8.576;2023-04-25T07:23:43;99988.53;;;16.44;51.07
38227;BME280;24026;49.446;8.576;2023-04-25T07:26:03;99982.84;;;16.45;50.84
38227;BME280;24026;49.446;8.576;2023-04-25T07:28:23;99983.94;;;16.44;50.97
38227;BME280;24026;49.446;8.576;2023-04-25T07:30:44;99991.72;;;16.46;50.73
38227;BME280;24026;49.446;8.576;2023-04-25T07:33:04;99993.91;;;16.44;50.92
38227;BME280;24026;49.446;8.576;2023-04-25T07:35:24;99994.97;;;16.43;50.79
38227;BME280;24026;49.446;8.576;2023-04-25T07:37:44;99995.75;;;16.43;51.03
38227;BME280;24026;49.446;8.576;2023-04-25T07:40:05;99998.16;;;16.45;50.93
38227;BME280;24026;49.446;8.576;2023-04-25T07:42:25;99999.75;;;16.46;50.66
38227;BME280;24026;49.446;8.576;2023-04-25T07:44:46;100002.44;;;16.46;50.81
38227;BME280;24026;49.446;8.576;2023-04-25T07:47:07;100003.81;;;16.43;50.67
38227;BME280;24026;49.446;8.576;2023-04-25T07:49:28;100005.69;;;16.43;50.71
38227;BME280;24026;49.446;8.576;2023-04-25T07:51:48;100004.44;;;16.35;51.02
38227;BME280;24026;49.446;8.576;2023-04-25T07:54:09;100012.13;;;16.42;50.68
38227;BME280;24026;49.446;8.576;2023-04-25T07:56:29;100005.41;;;16.44;50.72
38227;BME280;24026;49.446;8.576;2023-04-25T07:58:49;100005.41;;;16.44;50.73
38227;BME280;24026;49.446;8.576;2023-04-25T08:01:10;100014.53;;;16.43;50.58
38227;BME280;24026;49.446;8.576;2023-04-25T08:03:30;100016.44;;;16.43;50.67
38227;BME280;24026;49.446;8.576;2023-04-25T08:05:50;100027.94;;;16.43;50.60
38227;BME280;24026;49.446;8.576;2023-04-25T08:08:10;100031.19;;;16.40;50.64
38227;BME280;24026;49.446;8.576;2023-04-25T08:10:31;100038.38;;;16.45;50.48
38227;BME280;24026;49.446;8.576;2023-04-25T08:12:51;100045.84;;;16.48;50.57
38227;BME280;24026;49.446;8.576;2023-04-25T08:15:11;100043.75;;;16.45;50.51
38227;BME280;24026;49.446;8.576;2023-04-25T08:17:33;100045.84;;;16.48;50.69
38227;BME280;24026;49.446;8.576;2023-04-25T08:19:53;100057.38;;;16.48;50.54
38227;BME280;24026;49.446;8.576;2023-04-25T08:22:14;100053.91;;;16.48;50.58
38227;BME280;24026;49.446;8.576;2023-04-25T08:24:34;100053.34;;;16.51;50.46
38227;BME280;24026;49.446;8.576;2023-04-25T08:26:55;100060.59;;;16.51;50.68
38227;BME280;24026;49.446;8.576;2023-04-25T08:29:15;100069.44;;;16.51;51.37
38227;BME280;24026;49.446;8.576;2023-04-25T08:31:36;100078.19;;;16.57;50.45
38227;BME280;24026;49.446;8.576;2023-04-25T08:33:57;100083.84;;;16.55;50.59
38227;BME280;24026;49.446;8.576;2023-04-25T08:36:17;100081.72;;;16.52;50.59
38227;BME280;24026;49.446;8.576;2023-04-25T08:38:38;100090.03;;;16.56;50.50
38227;BME280;24026;49.446;8.576;2023-04-25T08:40:59;100086.25;;;16.57;50.45
38227;BME280;24026;49.446;8.576;2023-04-25T08:43:21;100089.75;;;16.57;50.42
38227;BME280;24026;49.446;8.576;2023-04-25T08:45:43;100095.59;;;16.59;50.16
38227;BME280;24026;49.446;8.576;2023-04-25T08:48:04;100088.84;;;16.62;50.22
38227;BME280;24026;49.446;8.576;2023-04-25T08:50:25;100089.97;;;16.61;50.28
38227;BME280;24026;49.446;8.576;2023-04-25T08:52:46;100087.78;;;16.63;50.21
38227;BME280;24026;49.446;8.576;2023-04-25T08:55:07;100090.97;;;16.65;50.09
38227;BME280;24026;49.446;8.576;2023-04-25T08:57:29;100095.25;;;16.66;50.08
38227;BME280;24026;49.446;8.576;2023-04-25T08:59:51;100107.00;;;16.70;50.04
38227;BME280;24026;49.446;8.576;2023-04-25T09:02:12;100107.50;;;16.72;49.91
38227;BME280;24026;49.446;8.576;2023-04-25T09:04:35;100098.38;;;16.73;49.63
38227;BME280;24026;49.446;8.576;2023-04-25T09:06:55;100109.59;;;16.75;49.74
38227;BME280;24026;49.446;8.576;2023-04-25T09:09:16;100105.34;;;16.74;49.69
38227;BME280;24026;49.446;8.576;2023-04-25T09:11:36;100103.16;;;16.76;49.86
38227;BME280;24026;49.446;8.576;2023-04-25T09:14:15;100105.84;;;16.76;49.36
38227;BME280;24026;49.446;8.576;2023-04-25T09:16:40;100112.75;;;16.82;49.36
38227;BME280;24026;49.446;8.576;2023-04-25T09:19:21;100117.53;;;16.85;49.46
38227;BME280;24026;49.446;8.576;2023-04-25T09:21:41;100122.34;;;16.89;49.23
38227;BME280;24026;49.446;8.576;2023-04-25T09:24:01;100119.38;;;16.90;49.07
38227;BME280;24026;49.446;8.576;2023-04-25T09:26:22;100122.88;;;16.91;49.07
38227;BME280;24026;49.446;8.576;2023-04-25T09:28:42;100133.00;;;16.94;48.94
38227;BME280;24026;49.446;8.576;2023-04-25T09:31:03;100131.13;;;16.94;49.16
38227;BME280;24026;49.446;8.576;2023-04-25T09:33:28;100130.84;;;16.96;49.26
38227;BME280;24026;49.446;8.576;2023-04-25T09:35:48;100132.13;;;16.98;49.14
38227;BME280;24026;49.446;8.576;2023-04-25T09:38:15;100141.78;;;16.99;48.75
38227;BME280;24026;49.446;8.576;2023-04-25T09:40:41;100136.94;;;17.01;48.70
38227;BME280;24026;49.446;8.576;2023-04-25T09:43:02;100141.72;;;17.04;48.61
38227;BME280;24026;49.446;8.576;2023-04-25T09:45:22;100139.25;;;17.08;48.51
38227;BME280;24026;49.446;8.576;2023-04-25T09:47:43;100144.41;;;17.04;48.71
38227;BME280;24026;49.446;8.576;2023-04-25T09:50:13;100146.72;;;17.11;48.37
38227;BME280;24026;49.446;8.576;2023-04-25T09:52:34;100151.81;;;17.13;48.29
38227;BME280;24026;49.446;8.576;2023-04-25T09:54:54;100148.09;;;17.09;48.27
38227;BME280;24026;49.446;8.576;2023-04-25T09:57:18;100166.38;;;17.07;48.46
38227;BME280;24026;49.446;8.576;2023-04-25T09:59:39;100162.16;;;17.00;48.25
38227;BME280;24026;49.446;8.576;2023-04-25T10:02:02;100175.88;;;16.99;47.47
38227;BME280;24026;49.446;8.576;2023-04-25T10:04:24;100175.09;;;16.98;46.62
38227;BME280;24026;49.446;8.576;2023-04-25T10:06:48;100183.34;;;17.02;47.02
38227;BME280;24026;49.446;8.576;2023-04-25T10:09:09;100176.69;;;16.99;46.64
38227;BME280;24026;49.446;8.576;2023-04-25T10:11:30;100178.28;;;17.00;47.01
38227;BME280;24026;49.446;8.576;2023-04-25T10:13:52;100183.28;;;17.07;46.84
38227;BME280;24026;49.446;8.576;2023-04-25T10:16:12;100185.69;;;17.09;46.98
38227;BME280;24026;49.446;8.576;2023-04-25T10:18:33;100187.50;;;17.13;47.06
38227;BME280;24026;49.446;8.576;2023-04-25T10:20:57;100183.16;;;17.17;47.22
38227;BME280;24026;49.446;8.576;2023-04-25T10:23:18;100194.69;;;17.18;46.71
38227;BME280;24026;49.446;8.576;2023-04-25T10:25:38;100192.50;;;17.20;46.95
38227;BME280;24026;49.446;8.576;2023-04-25T10:27:59;100185.78;;;17.22;46.93
38227;BME280;24026;49.446;8.576;2023-04-25T10:30:19;100184.16;;;17.21;46.79
38227;BME280;24026;49.446;8.576;2023-04-25T10:32:41;100186.00;;;17.26;46.88
38227;BME280;24026;49.446;8.576;2023-04-25T10:35:15;100176.81;;;17.27;46.64
38227;BME280;24026;49.446;8.576;2023-04-25T10:37:36;100186.19;;;17.30;46.65
38227;BME280;24026;49.446;8.576;2023-04-25T10:39:57;100180.53;;;17.31;46.50
38227;BME280;24026;49.446;8.576;2023-04-25T10:42:17;100177.56;;;17.33;46.69
38227;BME280;24026;49.446;8.576;2023-04-25T10:44:38;100171.09;;;17.34;46.36
38227;BME280;24026;49.446;8.576;2023-04-25T10:47:01;100177.00;;;17.36;46.41
38227;BME280;24026;49.446;8.576;2023-04-25T10:52:10;100184.22;;;17.35;46.46
38227;BME280;24026;49.446;8.576;2023-04-25T10:54:34;100191.50;;;17.35;46.60
38227;BME280;24026;49.446;8.576;2023-04-25T10:56:59;100187.44;;;17.37;46.10
38227;BME280;24026;49.446;8.576;2023-04-25T10:59:20;100186.63;;;17.37;46.15
38227;BME280;24026;49.446;8.576;2023-04-25T11:04:05;100196.50;;;17.41;46.21
38227;BME280;24026;49.446;8.576;2023-04-25T11:08:49;100195.50;;;17.37;46.11
38227;BME280;24026;49.446;8.576;2023-04-25T11:11:09;100202.75;;;17.37;46.10
38227;BME280;24026;49.446;8.576;2023-04-25T11:13:30;100202.16;;;17.40;45.99
38227;BME280;24026;49.446;8.576;2023-04-25T11:15:51;100204.56;;;17.41;45.85
38227;BME280;24026;49.446;8.576;2023-04-25T11:18:15;100196.00;;;17.39;45.86
38227;BME280;24026;49.446;8.576;2023-04-25T11:20:35;100198.75;;;17.34;46.18
38227;BME280;24026;49.446;8.576;2023-04-25T11:22:58;100212.19;;;17.34;46.14
38227;BME280;24026;49.446;8.576;2023-04-25T11:25:20;100210.44;;;17.25;46.44
38227;BME280;24026;49.446;8.576;2023-04-25T11:27:57;100210.94;;;17.27;46.26
38227;BME280;24026;49.446;8.576;2023-04-25T11:30:18;100208.25;;;17.27;45.43
38227;BME280;24026;49.446;8.576;2023-04-25T11:32:39;100212.03;;;17.26;45.67
38227;BME280;24026;49.446;8.576;2023-04-25T11:34:59;100211.25;;;17.25;45.46
38227;BME280;24026;49.446;8.576;2023-04-25T11:37:20;100206.97;;;17.24;45.54
38227;BME280;24026;49.446;8.576;2023-04-25T11:39:44;100213.91;;;17.25;45.64
38227;BME280;24026;49.446;8.576;2023-04-25T11:42:06;100220.31;;;17.29;45.70
38227;BME280;24026;49.446;8.576;2023-04-25T11:44:26;100216.53;;;17.30;45.57
38227;BME280;24026;49.446;8.576;2023-04-25T11:46:46;100223.00;;;17.29;45.67
38227;BME280;24026;49.446;8.576;2023-04-25T11:49:07;100216.91;;;17.23;45.58
38227;BME280;24026;49.446;8.576;2023-04-25T11:51:27;100228.88;;;17.31;45.32
38227;BME280;24026;49.446;8.576;2023-04-25T11:53:47;100226.41;;;17.35;45.37
38227;BME280;24026;49.446;8.576;2023-04-25T11:56:10;100232.56;;;17.35;45.44
38227;BME280;24026;49.446;8.576;2023-04-25T11:58:53;100249.50;;;17.36;45.01
38227;BME280;24026;49.446;8.576;2023-04-25T12:01:24;100237.44;;;17.33;43.92
38227;BME280;24026;49.446;8.576;2023-04-25T12:03:47;100239.84;;;17.35;44.03
38227;BME280;24026;49.446;8.576;2023-04-25T12:06:08;100236.66;;;17.33;44.01
38227;BME280;24026;49.446;8.576;2023-04-25T12:08:28;100237.16;;;17.35;44.26
38227;BME280;24026;49.446;8.576;2023-04-25T12:10:48;100240.91;;;17.34;44.04
38227;BME280;24026;49.446;8.576;2023-04-25T12:13:19;100237.38;;;17.38;44.49
38227;BME280;24026;49.446;8.576;2023-04-25T12:15:40;100236.88;;;17.36;44.64
38227;BME280;24026;49.446;8.576;2023-04-25T12:18:01;100240.84;;;17.39;44.32
38227;BME280;24026;49.446;8.576;2023-04-25T12:20:25;100245.13;;;17.40;44.44
38227;BME280;24026;49.446;8.576;2023-04-25T12:22:48;100247.53;;;17.41;44.36
38227;BME280;24026;49.446;8.576;2023-04-25T12:25:08;100251.59;;;17.39;44.28
38227;BME280;24026;49.446;8.576;2023-04-25T12:27:30;100247.81;;;17.40;44.57
38227;BME280;24026;49.446;8.576;2023-04-25T12:29:52;100254.59;;;17.37;44.40
38227;BME280;24026;49.446;8.576;2023-04-25T12:32:12;100255.09;;;17.39;44.36